sensor_id;sensor_type;location;lat;lon;timestamp;P1;durP1;ratioP1;P2;durP2;ratioP2
72095;SDS011;59968;51.084;16.748;2023-04-25T00:01:03;1.10;;;0.90;;
72095;SDS011;59968;51.084;16.748;2023-04-25T00:03:40;1.60;;;1.00;;
72095;SDS011;59968;51.084;16.748;2023-04-25T00:06:24;1.50;;;1.00;;
72095;SDS011;59968;51.084;16.748;2023-04-25T00:09:02;1.50;;;1.00;;
72095;SDS011;59968;51.084;16.748;2023-04-25T00:11:41;1.20;;;0.80;;
72095;SDS011;59968;51.084;16.748;2023-04-25T00:14:33;1.70;;;1.30;;
72095;SDS011;59968;51.084;16.748;2023-04-25T00:17:25;3.00;;;1.30;;
72095;SDS011;59968;51.084;16.748;2023-04-25T00:20:09;3.00;;;1.30;;
72095;SDS011;59968;51.084;16.748;2023-04-25T00:22:51;1.20;;;0.90;;
72095;SDS011;59968;51.084;16.748;2023-04-25T00:25:26;1.90;;;1.10;;
72095;SDS011;59968;51.084;16.748;2023-04-25T00:28:10;1.80;;;1.10;;
72095;SDS011;59968;51.084;16.748;2023-04-25T00:30:56;1.90;;;1.10;;
72095;SDS011;59968;51.084;16.748;2023-04-25T00:33:42;3.10;;;1.50;;
72095;SDS011;59968;51.084;16.748;2023-04-25T00:36:19;2.50;;;1.20;;
72095;SDS011;59968;51.084;16.748;2023-04-25T00:38:52;2.90;;;1.50;;
72095;SDS011;59968;51.084;16.748;2023-04-25T00:41:27;2.20;;;1.60;;
72095;SDS011;59968;51.084;16.748;2023-04-25T00:44:08;2.20;;;1.30;;
72095;SDS011;59968;51.084;16.748;2023-04-25T00:46:47;1.60;;;1.20;;
72095;SDS011;59968;51.084;16.748;2023-04-25T00:49:24;2.60;;;1.40;;
72095;SDS011;59968;51.084;16.748;2023-04-25T00:52:03;2.90;;;1.70;;
72095;SDS011;59968;51.084;16.748;2023-04-25T00:54:45;2.90;;;1.60;;
72095;SDS011;59968;51.084;16.748;2023-04-25T00:57:24;3.10;;;1.60;;
72095;SDS011;59968;51.084;16.748;2023-04-25T01:00:19;2.50;;;1.60;;
72095;SDS011;59968;51.084;16.748;2023-04-25T01:02:53;3.30;;;1.60;;
72095;SDS011;59968;51.084;16.748;2023-04-25T01:05:29;3.90;;;1.70;;
72095;SDS011;59968;51.084;16.748;2023-04-25T01:07:58;4.40;;;2.20;;
72095;SDS011;59968;51.084;16.748;2023-04-25T01:10:44;3.70;;;2.10;;
72095;SDS011;59968;51.084;16.748;2023-04-25T01:16:16;3.20;;;2.00;;
72095;SDS011;59968;51.084;16.748;2023-04-25T01:18:56;3.70;;;2.30;;
72095;SDS011;59968;51.084;16.748;2023-04-25T01:21:30;3.60;;;2.00;;
72095;SDS011;59968;51.084;16.748;2023-04-25T01:24:27;3.60;;;1.90;;
72095;SDS011;59968;51.084;16.748;2023-04-25T01:26:59;4.40;;;2.10;;
72095;SDS011;59968;51.084;16.748;2023-04-25T01:29:35;3.30;;;1.90;;
72095;SDS011;59968;51.084;16.748;2023-04-25T01:32:12;3.60;;;2.10;;
72095;SDS011;59968;51.084;16.748;2023-04-25T01:35:03;4.30;;;2.10;;
72095;SDS011;59968;51.084;16.748;2023-04-25T01:37:41;4.40;;;2.50;;
72095;SDS011;59968;51.084;16.748;2023-04-25T01:40:14;3.60;;;2.10;;
72095;SDS011;59968;51.084;16.748;2023-04-25T01:43:00;4.50;;;2.40;;
72095;SDS011;59968;51.084;16.748;2023-04-25T01:45:42;4.10;;;2.40;;
72095;SDS011;59968;51.084;16.748;2023-04-25T01:48:22;4.70;;;2.40;;
72095;SDS011;59968;51.084;16.748;2023-04-25T01:51:21;4.10;;;2.30;;
72095;SDS011;59968;51.084;16.748;2023-04-25T01:53:54;5.10;;;2.60;;
72095;SDS011;59968;51.084;16.748;2023-04-25T01:56:30;4.30;;;1.90;;
72095;SDS011;59968;51.084;16.748;2023-04-25T01:59:04;4.00;;;2.20;;
72095;SDS011;59968;51.084;16.748;2023-04-25T02:01:54;4.40;;;2.30;;
72095;SDS011;59968;51.084;16.748;2023-04-25T02:04:47;4.70;;;2.70;;
72095;SDS011;59968;51.084;16.748;2023-04-25T02:07:22;4.50;;;2.10;;
72095;SDS011;59968;51.084;16.748;2023-04-25T02:09:56;3.60;;;1.80;;
72095;SDS011;59968;51.084;16.748;2023-04-25T02:12:39;6.30;;;2.30;;
72095;SDS011;59968;51.084;16.748;2023-04-25T02:15:37;5.40;;;2.30;;
72095;SDS011;59968;51.084;16.748;2023-04-25T02:18:16;4.70;;;2.20;;
72095;SDS011;59968;51.084;16.748;2023-04-25T02:20:45;3.60;;;2.20;;
72095;SDS011;59968;51.084;16.748;2023-04-25T02:23:31;4.60;;;2.10;;
72095;SDS011;59968;51.084;16.748;2023-04-25T02:26:00;4.70;;;2.70;;
72095;SDS011;59968;51.084;16.748;2023-04-25T02:28:31;5.50;;;2.70;;
72095;SDS011;59968;51.084;16.748;2023-04-25T02:31:17;4.10;;;2.50;;
72095;SDS011;59968;51.084;16.748;2023-04-25T02:33:45;3.80;;;2.20;;
72095;SDS011;59968;51.084;16.748;2023-04-25T02:36:17;4.10;;;2.40;;
72095;SDS011;59968;51.084;16.748;2023-04-25T02:38:49;5.40;;;2.80;;
72095;SDS011;59968;51.084;16.748;2023-04-25T02:41:29;5.00;;;2.80;;
72095;SDS011;59968;51.084;16.748;2023-04-25T02:44:05;4.50;;;2.80;;
72095;SDS011;59968;51.084;16.748;2023-04-25T02:46:36;3.80;;;2.30;;
72095;SDS011;59968;51.084;16.748;2023-04-25T02:49:13;3.90;;;2.30;;
72095;SDS011;59968;51.084;16.748;2023-04-25T02:51:55;5.00;;;2.70;;
72095;SDS011;59968;51.084;16.748;2023-04-25T02:54:30;5.30;;;2.90;;
72095;SDS011;59968;51.084;16.748;2023-04-25T02:57:02;6.10;;;2.40;;
72095;SDS011;59968;51.084;16.748;2023-04-25T02:59:35;4.70;;;2.50;;
72095;SDS011;59968;51.084;16.748;2023-04-25T03:02:19;4.70;;;2.60;;
72095;SDS011;59968;51.084;16.748;2023-04-25T03:05:13;5.30;;;2.80;;
72095;SDS011;59968;51.084;16.748;2023-04-25T03:07:45;5.70;;;3.00;;
72095;SDS011;59968;51.084;16.748;2023-04-25T03:10:16;5.70;;;2.80;;
72095;SDS011;59968;51.084;16.748;2023-04-25T03:12:54;5.60;;;2.90;;
72095;SDS011;59968;51.084;16.748;2023-04-25T03:15:25;6.90;;;2.90;;
72095;SDS011;59968;51.084;16.748;2023-04-25T03:20:40;5.70;;;3.20;;
72095;SDS011;59968;51.084;16.748;2023-04-25T03:23:18;5.50;;;3.00;;
72095;SDS011;59968;51.084;16.748;2023-04-25T03:25:50;5.00;;;2.80;;
72095;SDS011;59968;51.084;16.748;2023-04-25T03:28:22;7.90;;;3.20;;
72095;SDS011;59968;51.084;16.748;2023-04-25T03:30:51;6.00;;;3.30;;
72095;SDS011;59968;51.084;16.748;2023-04-25T03:33:28;6.80;;;3.20;;
72095;SDS011;59968;51.084;16.748;2023-04-25T03:36:01;5.80;;;3.00;;
72095;SDS011;59968;51.084;16.748;2023-04-25T03:38:40;7.10;;;3.90;;
72095;SDS011;59968;51.084;16.748;2023-04-25T03:41:19;5.80;;;2.90;;
72095;SDS011;59968;51.084;16.748;2023-04-25T03:44:01;6.60;;;3.20;;
72095;SDS011;59968;51.084;16.748;2023-04-25T03:46:35;8.30;;;3.40;;
72095;SDS011;59968;51.084;16.748;2023-04-25T03:49:14;7.40;;;3.20;;
72095;SDS011;59968;51.084;16.748;2023-04-25T03:52:07;6.10;;;3.40;;
72095;SDS011;59968;51.084;16.748;2023-04-25T03:54:51;6.30;;;3.20;;
72095;SDS011;59968;51.084;16.748;2023-04-25T03:57:33;8.20;;;3.60;;
72095;SDS011;59968;51.084;16.748;2023-04-25T04:00:06;7.40;;;3.10;;
72095;SDS011;59968;51.084;16.748;2023-04-25T04:02:41;6.60;;;3.40;;
72095;SDS011;59968;51.084;16.748;2023-04-25T04:05:13;5.60;;;3.20;;
72095;SDS011;59968;51.084;16.748;2023-04-25T04:07:51;6.70;;;3.20;;
72095;SDS011;59968;51.084;16.748;2023-04-25T04:10:29;5.80;;;3.30;;
72095;SDS011;59968;51.084;16.748;2023-04-25T04:13:04;6.70;;;3.40;;
72095;SDS011;59968;51.084;16.748;2023-04-25T04:15:33;6.30;;;3.40;;
72095;SDS011;59968;51.084;16.748;2023-04-25T04:18:02;5.80;;;3.20;;
72095;SDS011;59968;51.084;16.748;2023-04-25T04:20:46;8.00;;;3.40;;
72095;SDS011;59968;51.084;16.748;2023-04-25T04:23:18;6.20;;;3.10;;
72095;SDS011;59968;51.084;16.748;2023-04-25T04:25:48;6.00;;;3.40;;
72095;SDS011;59968;51.084;16.748;2023-04-25T04:28:47;5.80;;;3.20;;
72095;SDS011;59968;51.084;16.748;2023-04-25T04:31:30;8.60;;;4.00;;
72095;SDS011;59968;51.084;16.748;2023-04-25T04:34:02;7.50;;;3.90;;
72095;SDS011;59968;51.084;16.748;2023-04-25T04:36:32;7.00;;;3.60;;
72095;SDS011;59968;51.084;16.748;2023-04-25T04:39:01;6.00;;;3.00;;
72095;SDS011;59968;51.084;16.748;2023-04-25T04:41:44;7.60;;;3.50;;
72095;SDS011;59968;51.084;16.748;2023-04-25T04:44:38;5.90;;;3.30;;
72095;SDS011;59968;51.084;16.748;2023-04-25T04:47:33;5.90;;;3.40;;
72095;SDS011;59968;51.084;16.748;2023-04-25T04:50:37;7.50;;;3.70;;
72095;SDS011;59968;51.084;16.748;2023-04-25T04:53:30;6.40;;;3.60;;
72095;SDS011;59968;51.084;16.748;2023-04-25T04:56:17;7.40;;;3.60;;
72095;SDS011;59968;51.084;16.748;2023-04-25T04:59:05;7.30;;;3.30;;
72095;SDS011;59968;51.084;16.748;2023-04-25T05:01:53;8.30;;;3.40;;
72095;SDS011;59968;51.084;16.748;2023-04-25T05:04:38;6.40;;;3.60;;
72095;SDS011;59968;51.084;16.748;2023-04-25T05:07:36;6.60;;;3.80;;
72095;SDS011;59968;51.084;16.748;2023-04-25T05:10:20;6.00;;;3.80;;
72095;SDS011;59968;51.084;16.748;2023-04-25T05:13:19;7.10;;;3.50;;
72095;SDS011;59968;51.084;16.748;2023-04-25T05:16:13;6.00;;;3.60;;
72095;SDS011;59968;51.084;16.748;2023-04-25T05:19:02;6.70;;;3.60;;
72095;SDS011;59968;51.084;16.748;2023-04-25T05:21:51;7.00;;;3.60;;
72095;SDS011;59968;51.084;16.748;2023-04-25T05:24:41;7.10;;;3.80;;
72095;SDS011;59968;51.084;16.748;2023-04-25T05:27:26;7.80;;;3.80;;
72095;SDS011;59968;51.084;16.748;2023-04-25T05:30:13;7.90;;;3.70;;
72095;SDS011;59968;51.084;16.748;2023-04-25T05:32:58;7.10;;;3.80;;
72095;SDS011;59968;51.084;16.748;2023-04-25T05:35:27;7.20;;;4.10;;
72095;SDS011;59968;51.084;16.748;2023-04-25T05:37:59;9.20;;;3.90;;
72095;SDS011;59968;51.084;16.748;2023-04-25T05:40:51;5.70;;;3.40;;
72095;SDS011;59968;51.084;16.748;2023-04-25T05:43:52;7.00;;;4.00;;
72095;SDS011;59968;51.084;16.748;2023-04-25T05:46:40;7.30;;;4.20;;
72095;SDS011;59968;51.084;16.748;2023-04-25T05:49:22;6.70;;;3.50;;
72095;SDS011;59968;51.084;16.748;2023-04-25T05:52:20;5.50;;;2.70;;
72095;SDS011;59968;51.084;16.748;2023-04-25T05:55:01;7.40;;;3.60;;
72095;SDS011;59968;51.084;16.748;2023-04-25T05:57:30;7.50;;;4.00;;
72095;SDS011;59968;51.084;16.748;2023-04-25T06:00:08;6.60;;;3.70;;
72095;SDS011;59968;51.084;16.748;2023-04-25T06:02:41;6.80;;;3.20;;
72095;SDS011;59968;51.084;16.748;2023-04-25T06:05:14;6.90;;;3.40;;
72095;SDS011;59968;51.084;16.748;2023-04-25T06:07:47;6.00;;;3.40;;
72095;SDS011;59968;51.084;16.748;2023-04-25T06:10:28;7.00;;;4.20;;
72095;SDS011;59968;51.084;16.748;2023-04-25T06:13:02;6.40;;;3.20;;
72095;SDS011;59968;51.084;16.748;2023-04-25T06:15:42;4.90;;;2.70;;
72095;SDS011;59968;51.084;16.748;2023-04-25T06:18:12;5.40;;;3.00;;
72095;SDS011;59968;51.084;16.748;2023-04-25T06:20:46;6.00;;;3.00;;
72095;SDS011;59968;51.084;16.748;2023-04-25T06:23:18;9.00;;;3.20;;
72095;SDS011;59968;51.084;16.748;2023-04-25T06:25:54;7.60;;;3.30;;
72095;SDS011;59968;51.084;16.748;2023-04-25T06:28:23;5.40;;;2.30;;
72095;SDS011;59968;51.084;16.748;2023-04-25T06:30:53;6.70;;;3.40;;
72095;SDS011;59968;51.084;16.748;2023-04-25T06:33:24;5.00;;;2.70;;
72095;SDS011;59968;51.084;16.748;2023-04-25T06:35:56;4.20;;;2.30;;
72095;SDS011;59968;51.084;16.748;2023-04-25T06:38:28;6.30;;;3.20;;
72095;SDS011;59968;51.084;16.748;2023-04-25T06:41:00;5.90;;;2.50;;
72095;SDS011;59968;51.084;16.748;2023-04-25T06:43:43;5.60;;;2.00;;
72095;SDS011;59968;51.084;16.748;2023-04-25T06:46:32;6.00;;;2.30;;
72095;SDS011;59968;51.084;16.748;2023-04-25T06:49:01;5.20;;;2.40;;
72095;SDS011;59968;51.084;16.748;2023-04-25T06:51:37;6.60;;;2.80;;
72095;SDS011;59968;51.084;16.748;2023-04-25T06:54:16;6.20;;;2.40;;
72095;SDS011;59968;51.084;16.748;2023-04-25T06:56:54;5.80;;;2.60;;
72095;SDS011;59968;51.084;16.748;2023-04-25T06:59:32;5.60;;;2.40;;
72095;SDS011;59968;51.084;16.748;2023-04-25T07:02:09;6.30;;;2.30;;
72095;SDS011;59968;51.084;16.748;2023-04-25T07:04:50;5.30;;;2.20;;
72095;SDS011;59968;51.084;16.748;2023-04-25T07:07:22;6.30;;;2.70;;
72095;SDS011;59968;51.084;16.748;2023-04-25T07:09:55;3.60;;;2.00;;
72095;SDS011;59968;51.084;16.748;2023-04-25T07:12:33;6.50;;;2.50;;
72095;SDS011;59968;51.084;16.748;2023-04-25T07:15:05;5.50;;;2.60;;
72095;SDS011;59968;51.084;16.748;2023-04-25T07:17:41;4.10;;;2.20;;
72095;SDS011;59968;51.084;16.748;2023-04-25T07:20:13;7.40;;;3.60;;
72095;SDS011;59968;51.084;16.748;2023-04-25T07:22:51;7.70;;;2.60;;
72095;SDS011;59968;51.084;16.748;2023-04-25T07:25:32;6.00;;;3.20;;
72095;SDS011;59968;51.084;16.748;2023-04-25T07:28:04;6.80;;;3.50;;
72095;SDS011;59968;51.084;16.748;2023-04-25T07:30:55;6.20;;;3.20;;
72095;SDS011;59968;51.084;16.748;2023-04-25T07:33:25;7.00;;;3.40;;
72095;SDS011;59968;51.084;16.748;2023-04-25T07:35:57;7.20;;;3.40;;
72095;SDS011;59968;51.084;16.748;2023-04-25T07:38:45;5.40;;;3.10;;
72095;SDS011;59968;51.084;16.748;2023-04-25T07:41:22;6.00;;;3.40;;
72095;SDS011;59968;51.084;16.748;2023-04-25T07:43:51;4.90;;;2.50;;
72095;SDS011;59968;51.084;16.748;2023-04-25T07:46:23;6.60;;;3.60;;
72095;SDS011;59968;51.084;16.748;2023-04-25T07:48:55;6.70;;;3.90;;
72095;SDS011;59968;51.084;16.748;2023-04-25T07:51:24;7.40;;;3.90;;
72095;SDS011;59968;51.084;16.748;2023-04-25T07:53:53;7.90;;;4.10;;
72095;SDS011;59968;51.084;16.748;2023-04-25T07:56:28;7.20;;;3.80;;
72095;SDS011;59968;51.084;16.748;2023-04-25T07:59:20;6.20;;;3.50;;
72095;SDS011;59968;51.084;16.748;2023-04-25T08:01:52;8.20;;;4.20;;
72095;SDS011;59968;51.084;16.748;2023-04-25T08:04:21;7.70;;;4.20;;
72095;SDS011;59968;51.084;16.748;2023-04-25T08:07:00;8.20;;;4.70;;
72095;SDS011;59968;51.084;16.748;2023-04-25T08:09:38;7.10;;;3.40;;
72095;SDS011;59968;51.084;16.748;2023-04-25T08:12:14;8.70;;;4.10;;
72095;SDS011;59968;51.084;16.748;2023-04-25T08:14:43;8.40;;;4.50;;
72095;SDS011;59968;51.084;16.748;2023-04-25T08:17:15;8.10;;;4.90;;
72095;SDS011;59968;51.084;16.748;2023-04-25T08:19:50;9.50;;;4.70;;
72095;SDS011;59968;51.084;16.748;2023-04-25T08:22:25;7.00;;;3.80;;
72095;SDS011;59968;51.084;16.748;2023-04-25T08:25:11;8.10;;;5.00;;
72095;SDS011;59968;51.084;16.748;2023-04-25T08:27:40;5.20;;;3.20;;
72095;SDS011;59968;51.084;16.748;2023-04-25T08:30:10;5.80;;;3.30;;
72095;SDS011;59968;51.084;16.748;2023-04-25T08:32:41;5.60;;;3.10;;
72095;SDS011;59968;51.084;16.748;2023-04-25T08:35:50;7.20;;;3.90;;
72095;SDS011;59968;51.084;16.748;2023-04-25T08:38:22;5.20;;;2.80;;
72095;SDS011;59968;51.084;16.748;2023-04-25T08:40:51;6.20;;;3.40;;
72095;SDS011;59968;51.084;16.748;2023-04-25T08:43:21;6.50;;;3.50;;
72095;SDS011;59968;51.084;16.748;2023-04-25T08:46:03;6.40;;;3.60;;
72095;SDS011;59968;51.084;16.748;2023-04-25T08:48:42;6.10;;;3.40;;
72095;SDS011;59968;51.084;16.748;2023-04-25T08:51:15;8.60;;;3.90;;
72095;SDS011;59968;51.084;16.748;2023-04-25T08:53:51;7.30;;;3.80;;
72095;SDS011;59968;51.084;16.748;2023-04-25T08:56:24;6.20;;;3.70;;
72095;SDS011;59968;51.084;16.748;2023-04-25T08:58:55;6.50;;;3.30;;
72095;SDS011;59968;51.084;16.748;2023-04-25T09:01:26;6.70;;;3.80;;
72095;SDS011;59968;51.084;16.748;2023-04-25T09:03:56;8.40;;;3.40;;
72095;SDS011;59968;51.084;16.748;2023-04-25T09:06:26;6.30;;;3.80;;
72095;SDS011;59968;51.084;16.748;2023-04-25T09:09:01;6.40;;;3.90;;
72095;SDS011;59968;51.084;16.748;2023-04-25T09:11:33;8.10;;;3.80;;
72095;SDS011;59968;51.084;16.748;2023-04-25T09:14:20;8.30;;;3.90;;
72095;SDS011;59968;51.084;16.748;2023-04-25T09:17:03;6.70;;;3.60;;
72095;SDS011;59968;51.084;16.748;2023-04-25T09:19:43;5.60;;;3.80;;
72095;SDS011;59968;51.084;16.748;2023-04-25T09:22:23;6.40;;;3.40;;
72095;SDS011;59968;51.084;16.748;2023-04-25T09:24:53;7.20;;;3.30;;
72095;SDS011;59968;51.084;16.748;2023-04-25T09:27:27;7.00;;;4.10;;
72095;SDS011;59968;51.084;16.748;2023-04-25T09:30:02;6.30;;;4.30;;
72095;SDS011;59968;51.084;16.748;2023-04-25T09:32:51;5.90;;;3.60;;
72095;SDS011;59968;51.084;16.748;2023-04-25T09:35:26;5.40;;;2.90;;
72095;SDS011;59968;51.084;16.748;2023-04-25T09:37:59;4.50;;;2.90;;
72095;SDS011;59968;51.084;16.748;2023-04-25T09:40:47;6.00;;;3.20;;
72095;SDS011;59968;51.084;16.748;2023-04-25T09:43:29;5.10;;;2.90;;
72095;SDS011;59968;51.084;16.748;2023-04-25T09:46:01;5.70;;;2.80;;
72095;SDS011;59968;51.084;16.748;2023-04-25T09:48:31;5.10;;;3.30;;
72095;SDS011;59968;51.084;16.748;2023-04-25T09:51:10;4.70;;;3.30;;
72095;SDS011;59968;51.084;16.748;2023-04-25T09:53:43;5.60;;;3.40;;
72095;SDS011;59968;51.084;16.748;2023-04-25T09:56:41;5.00;;;3.70;;
72095;SDS011;59968;51.084;16.748;2023-04-25T09:59:15;5.10;;;3.40;;
72095;SDS011;59968;51.084;16.748;2023-04-25T10:01:44;5.70;;;3.00;;
72095;SDS011;59968;51.084;16.748;2023-04-25T10:04:21;6.70;;;2.40;;
72095;SDS011;59968;51.084;16.748;2023-04-25T10:07:06;5.20;;;2.50;;
72095;SDS011;59968;51.084;16.748;2023-04-25T10:09:39;4.80;;;3.00;;
72095;SDS011;59968;51.084;16.748;2023-04-25T10:12:12;3.20;;;2.00;;
72095;SDS011;59968;51.084;16.748;2023-04-25T10:14:41;3.00;;;2.00;;
72095;SDS011;59968;51.084;16.748;2023-04-25T10:17:23;3.90;;;1.80;;
72095;SDS011;59968;51.084;16.748;2023-04-25T10:19:52;4.20;;;2.30;;
72095;SDS011;59968;51.084;16.748;2023-04-25T10:25:02;3.20;;;1.90;;
72095;SDS011;59968;51.084;16.748;2023-04-25T10:27:32;2.50;;;2.00;;
72095;SDS011;59968;51.084;16.748;2023-04-25T10:30:09;2.90;;;1.90;;
72095;SDS011;59968;51.084;16.748;2023-04-25T10:32:44;3.10;;;1.80;;
72095;SDS011;59968;51.084;16.748;2023-04-25T10:35:16;3.50;;;1.80;;
72095;SDS011;59968;51.084;16.748;2023-04-25T10:38:05;3.70;;;1.60;;
72095;SDS011;59968;51.084;16.748;2023-04-25T10:40:39;2.60;;;1.60;;
72095;SDS011;59968;51.084;16.748;2023-04-25T10:48:59;4.90;;;1.90;;
72095;SDS011;59968;51.084;16.748;2023-04-25T10:51:33;4.20;;;1.50;;
72095;SDS011;59968;51.084;16.748;2023-04-25T10:54:22;3.10;;;1.60;;
72095;SDS011;59968;51.084;16.748;2023-04-25T10:56:53;2.30;;;1.60;;
72095;SDS011;59968;51.084;16.748;2023-04-25T10:59:22;4.00;;;1.70;;
72095;SDS011;59968;51.084;16.748;2023-04-25T11:01:53;2.80;;;1.70;;
72095;SDS011;59968;51.084;16.748;2023-04-25T11:04:30;2.90;;;1.40;;
72095;SDS011;59968;51.084;16.748;2023-04-25T11:09:35;3.10;;;1.50;;
72095;SDS011;59968;51.084;16.748;2023-04-25T11:12:09;7.40;;;2.10;;
72095;SDS011;59968;51.084;16.748;2023-04-25T11:14:40;5.30;;;1.90;;
72095;SDS011;59968;51.084;16.748;2023-04-25T11:17:09;2.40;;;1.10;;
72095;SDS011;59968;51.084;16.748;2023-04-25T11:19:39;1.50;;;1.10;;
72095;SDS011;59968;51.084;16.748;2023-04-25T11:22:09;2.80;;;1.70;;
72095;SDS011;59968;51.084;16.748;2023-04-25T11:24:38;2.70;;;1.80;;
72095;SDS011;59968;51.084;16.748;2023-04-25T11:27:10;2.70;;;1.40;;
72095;SDS011;59968;51.084;16.748;2023-04-25T11:29:39;2.00;;;1.30;;
72095;SDS011;59968;51.084;16.748;2023-04-25T11:32:08;3.40;;;1.70;;
72095;SDS011;59968;51.084;16.748;2023-04-25T11:34:37;2.50;;;1.60;;
72095;SDS011;59968;51.084;16.748;2023-04-25T11:37:06;3.90;;;1.90;;
72095;SDS011;59968;51.084;16.748;2023-04-25T11:39:35;4.00;;;1.90;;
72095;SDS011;59968;51.084;16.748;2023-04-25T11:42:04;2.80;;;1.40;;
72095;SDS011;59968;51.084;16.748;2023-04-25T11:44:40;2.70;;;1.20;;
72095;SDS011;59968;51.084;16.748;2023-04-25T11:47:09;2.80;;;1.70;;
72095;SDS011;59968;51.084;16.748;2023-04-25T11:49:38;2.80;;;1.70;;
72095;SDS011;59968;51.084;16.748;2023-04-25T11:52:07;2.50;;;1.40;;
72095;SDS011;59968;51.084;16.748;2023-04-25T11:54:36;2.10;;;1.00;;
72095;SDS011;59968;51.084;16.748;2023-04-25T11:57:05;2.70;;;1.70;;
72095;SDS011;59968;51.084;16.748;2023-04-25T11:59:34;1.80;;;1.10;;
72095;SDS011;59968;51.084;16.748;2023-04-25T12:02:03;1.90;;;1.30;;
72095;SDS011;59968;51.084;16.748;2023-04-25T12:04:42;3.00;;;1.60;;
72095;SDS011;59968;51.084;16.748;2023-04-25T12:07:12;2.30;;;1.30;;
72095;SDS011;59968;51.084;16.748;2023-04-25T12:09:41;3.20;;;1.60;;
72095;SDS011;59968;51.084;16.748;2023-04-25T12:12:12;2.50;;;1.60;;
72095;SDS011;59968;51.084;16.748;2023-04-25T12:14:45;2.30;;;1.20;;
72095;SDS011;59968;51.084;16.748;2023-04-25T12:17:16;2.20;;;1.20;;
72095;SDS011;59968;51.084;16.748;2023-04-25T12:19:46;4.40;;;1.80;;
72095;SDS011;59968;51.084;16.748;2023-04-25T12:22:22;3.50;;;1.70;;
72095;SDS011;59968;51.084;16.748;2023-04-25T12:24:51;3.40;;;1.60;;
72095;SDS011;59968;51.084;16.748;2023-04-25T12:27:22;3.60;;;1.60;;
72095;SDS011;59968;51.084;16.748;2023-04-25T12:29:57;2.70;;;1.90;;
72095;SDS011;59968;51.084;16.748;2023-04-25T12:32:28;2.60;;;1.50;;
72095;SDS011;59968;51.084;16.748;2023-04-25T12:35:07;2.50;;;1.60;;
72095;SDS011;59968;51.084;16.748;2023-04-25T12:37:36;2.80;;;1.70;;
72095;SDS011;59968;51.084;16.748;2023-04-25T12:40:05;3.40;;;1.90;;
72095;SDS011;59968;51.084;16.748;2023-04-25T12:42:46;2.10;;;1.50;;
72095;SDS011;59968;51.084;16.748;2023-04-25T12:45:15;3.20;;;1.50;;
72095;SDS011;59968;51.084;16.748;2023-04-25T12:47:43;3.10;;;1.90;;
72095;SDS011;59968;51.084;16.748;2023-04-25T12:50:12;4.00;;;1.40;;
72095;SDS011;59968;51.084;16.748;2023-04-25T12:52:44;4.90;;;1.80;;
72095;SDS011;59968;51.084;16.748;2023-04-25T12:55:13;2.60;;;1.70;;
72095;SDS011;59968;51.084;16.748;2023-04-25T12:57:45;3.50;;;1.70;;
72095;SDS011;59968;51.084;16.748;2023-04-25T13:00:14;3.60;;;1.80;;
72095;SDS011;59968;51.084;16.748;2023-04-25T13:02:46;2.80;;;1.60;;
72095;SDS011;59968;51.084;16.748;2023-04-25T13:05:17;2.60;;;1.40;;
72095;SDS011;59968;51.084;16.748;2023-04-25T13:07:49;3.10;;;1.50;;
72095;SDS011;59968;51.084;16.748;2023-04-25T13:10:21;5.20;;;1.80;;
72095;SDS011;59968;51.084;16.748;2023-04-25T13:12:50;2.20;;;1.70;;
72095;SDS011;59968;51.084;16.748;2023-04-25T13:15:21;4.00;;;1.90;;
72095;SDS011;59968;51.084;16.748;2023-04-25T13:17:51;3.20;;;2.00;;
72095;SDS011;59968;51.084;16.748;2023-04-25T13:20:20;3.10;;;1.90;;
72095;SDS011;59968;51.084;16.748;2023-04-25T13:22:50;3.30;;;1.40;;
72095;SDS011;59968;51.084;16.748;2023-04-25T13:25:19;3.90;;;1.90;;
72095;SDS011;59968;51.084;16.748;2023-04-25T13:27:48;3.00;;;1.90;;
72095;SDS011;59968;51.084;16.748;2023-04-25T13:30:16;2.70;;;1.50;;
72095;SDS011;59968;51.084;16.748;2023-04-25T13:32:48;3.00;;;1.90;;
72095;SDS011;59968;51.084;16.748;2023-04-25T13:35:17;2.30;;;1.80;;
72095;SDS011;59968;51.084;16.748;2023-04-25T13:38:06;3.00;;;1.90;;
72095;SDS011;59968;51.084;16.748;2023-04-25T13:40:35;2.50;;;1.70;;
72095;SDS011;59968;51.084;16.748;2023-04-25T13:43:04;3.40;;;1.80;;
72095;SDS011;59968;51.084;16.748;2023-04-25T13:45:34;3.80;;;2.20;;
72095;SDS011;59968;51.084;16.748;2023-04-25T13:48:04;3.20;;;2.00;;
72095;SDS011;59968;51.084;16.748;2023-04-25T13:50:35;5.00;;;1.90;;
72095;SDS011;59968;51.084;16.748;2023-04-25T13:53:06;3.60;;;1.60;;
72095;SDS011;59968;51.084;16.748;2023-04-25T13:55:43;3.60;;;2.10;;
72095;SDS011;59968;51.084;16.748;2023-04-25T13:58:20;2.10;;;1.60;;
72095;SDS011;59968;51.084;16.748;2023-04-25T14:00:49;3.00;;;1.90;;
72095;SDS011;59968;51.084;16.748;2023-04-25T14:03:30;2.20;;;1.30;;
72095;SDS011;59968;51.084;16.748;2023-04-25T14:06:00;3.90;;;1.50;;
72095;SDS011;59968;51.084;16.748;2023-04-25T14:08:29;3.50;;;1.60;;
72095;SDS011;59968;51.084;16.748;2023-04-25T14:11:00;3.20;;;1.50;;
72095;SDS011;59968;51.084;16.748;2023-04-25T14:13:29;3.00;;;1.60;;
72095;SDS011;59968;51.084;16.748;2023-04-25T14:16:03;5.10;;;1.80;;
72095;SDS011;59968;51.084;16.748;2023-04-25T14:18:33;3.20;;;1.50;;
72095;SDS011;59968;51.084;16.748;2023-04-25T14:21:02;3.90;;;2.00;;
72095;SDS011;59968;51.084;16.748;2023-04-25T14:23:33;2.40;;;1.50;;
72095;SDS011;59968;51.084;16.748;2023-04-25T14:26:05;3.10;;;1.40;;
72095;SDS011;59968;51.084;16.748;2023-04-25T14:28:37;2.50;;;1.60;;
72095;SDS011;59968;51.084;16.748;2023-04-25T14:31:08;2.70;;;1.30;;
72095;SDS011;59968;51.084;16.748;2023-04-25T14:33:37;2.30;;;1.70;;
72095;SDS011;59968;51.084;16.748;2023-04-25T14:36:09;2.70;;;1.60;;
72095;SDS011;59968;51.084;16.748;2023-04-25T14:38:42;3.50;;;1.30;;
72095;SDS011;59968;51.084;16.748;2023-04-25T14:41:24;2.80;;;1.70;;
72095;SDS011;59968;51.084;16.748;2023-04-25T14:43:53;1.50;;;1.20;;
72095;SDS011;59968;51.084;16.748;2023-04-25T14:46:22;3.20;;;1.60;;
72095;SDS011;59968;51.084;16.748;2023-04-25T14:48:55;3.90;;;2.10;;
72095;SDS011;59968;51.084;16.748;2023-04-25T14:51:24;3.10;;;1.90;;
72095;SDS011;59968;51.084;16.748;2023-04-25T14:53:54;3.50;;;1.80;;
72095;SDS011;59968;51.084;16.748;2023-04-25T14:56:23;5.10;;;1.70;;
72095;SDS011;59968;51.084;16.748;2023-04-25T14:58:55;2.00;;;1.30;;
72095;SDS011;59968;51.084;16.748;2023-04-25T15:01:25;3.30;;;1.70;;
72095;SDS011;59968;51.084;16.748;2023-04-25T15:03:54;3.00;;;1.70;;
72095;SDS011;59968;51.084;16.748;2023-04-25T15:06:24;3.30;;;1.60;;
72095;SDS011;59968;51.084;16.748;2023-04-25T15:08:55;2.40;;;1.50;;
72095;SDS011;59968;51.084;16.748;2023-04-25T15:11:24;2.90;;;1.60;;
72095;SDS011;59968;51.084;16.748;2023-04-25T15:14:04;3.20;;;1.60;;
72095;SDS011;59968;51.084;16.748;2023-04-25T15:16:33;2.40;;;1.50;;
72095;SDS011;59968;51.084;16.748;2023-04-25T15:19:02;5.10;;;1.40;;
72095;SDS011;59968;51.084;16.748;2023-04-25T15:21:32;3.50;;;1.70;;
72095;SDS011;59968;51.084;16.748;2023-04-25T15:24:03;3.60;;;1.50;;
72095;SDS011;59968;51.084;16.748;2023-04-25T15:26:56;2.30;;;1.50;;
72095;SDS011;59968;51.084;16.748;2023-04-25T15:29:25;2.00;;;1.20;;
72095;SDS011;59968;51.084;16.748;2023-04-25T15:32:10;3.40;;;1.60;;
72095;SDS011;59968;51.084;16.748;2023-04-25T15:34:42;2.50;;;1.30;;
72095;SDS011;59968;51.084;16.748;2023-04-25T15:37:11;2.40;;;1.20;;
72095;SDS011;59968;51.084;16.748;2023-04-25T15:39:41;2.40;;;1.80;;
72095;SDS011;59968;51.084;16.748;2023-04-25T15:42:10;2.30;;;1.20;;